sensor_id;sensor_type;location;lat;lon;timestamp;pressure;altitude;pressure_sealevel;temperature;humidity
79799;BME280;69283;48.024;11.090;2023-08-21T00:01:00;95897.34;;;22.29;63.62
79799;BME280;69283;48.024;11.090;2023-08-21T00:03:25;95893.44;;;22.23;63.54
79799;BME280;69283;48.024;11.090;2023-08-21T00:05:51;95889.47;;;22.31;63.38
79799;BME280;69283;48.024;11.090;2023-08-21T00:08:16;95894.97;;;22.31;63.35
79799;BME280;69283;48.024;11.090;2023-08-21T00:10:41;95894.25;;;22.09;64.28
79799;BME280;69283;48.024;11.090;2023-08-21T00:13:07;95899.34;;;21.97;64.28
79799;BME280;69283;48.024;11.090;2023-08-21T00:15:32;95897.41;;;21.86;64.76
79799;BME280;69283;48.024;11.090;2023-08-21T00:17:58;95901.34;;;21.93;64.74
79799;BME280;69283;48.024;11.090;2023-08-21T00:20:23;95906.03;;;21.99;64.58
79799;BME280;69283;48.024;11.090;2023-08-21T00:22:49;95892.28;;;22.10;64.41
79799;BME280;69283;48.024;11.090;2023-08-21T00:25:14;95900.16;;;22.08;64.01
79799;BME280;69283;48.024;11.090;2023-08-21T00:27:40;95898.19;;;21.91;64.81
79799;BME280;69283;48.024;11.090;2023-08-21T00:30:05;95905.28;;;21.88;64.64
79799;BME280;69283;48.024;11.090;2023-08-21T00:32:31;95901.34;;;21.71;65.36
79799;BME280;69283;48.024;11.090;2023-08-21T00:34:56;95895.44;;;21.87;64.90
79799;BME280;69283;48.024;11.090;2023-08-21T00:37:21;95897.41;;;21.72;65.16
79799;BME280;69283;48.024;11.090;2023-08-21T00:39:47;95893.47;;;21.88;64.42
79799;BME280;69283;48.024;11.090;2023-08-21T00:42:12;95889.50;;;21.96;64.21
79799;BME280;69283;48.024;11.090;2023-08-21T00:44:37;95892.28;;;21.92;64.24
79799;BME280;69283;48.024;11.090;2023-08-21T00:47:02;95896.63;;;21.75;65.30
79799;BME280;69283;48.024;11.090;2023-08-21T00:49:28;95883.25;;;21.63;65.75
79799;BME280;69283;48.024;11.090;2023-08-21T00:51:54;95883.25;;;21.67;65.37
79799;BME280;69283;48.024;11.090;2023-08-21T00:54:19;95884.78;;;21.78;65.23
79799;BME280;69283;48.024;11.090;2023-08-21T00:56:45;95890.31;;;21.71;65.80
79799;BME280;69283;48.024;11.090;2023-08-21T00:59:11;95885.59;;;21.68;65.65
79799;BME280;69283;48.024;11.090;2023-08-21T01:01:37;95878.88;;;21.62;65.65
79799;BME280;69283;48.024;11.090;2023-08-21T01:04:03;95883.22;;;21.52;65.89
79799;BME280;69283;48.024;11.090;2023-08-21T01:06:28;95874.97;;;21.49;65.74
79799;BME280;69283;48.024;11.090;2023-08-21T01:08:59;95878.50;;;21.49;65.72
79799;BME280;69283;48.024;11.090;2023-08-21T01:11:52;95877.72;;;21.31;65.98
79799;BME280;69283;48.024;11.090;2023-08-21T01:14:29;95876.94;;;21.31;66.09
79799;BME280;69283;48.024;11.090;2023-08-21T01:17:01;95880.06;;;21.25;66.39
79799;BME280;69283;48.024;11.090;2023-08-21T01:19:35;95881.19;;;21.17;66.74
79799;BME280;69283;48.024;11.090;2023-08-21T01:22:01;95875.28;;;21.15;66.47
79799;BME280;69283;48.024;11.090;2023-08-21T01:24:26;95882.03;;;21.29;66.04
79799;BME280;69283;48.024;11.090;2023-08-21T01:26:52;95883.63;;;21.33;65.63
79799;BME280;69283;48.024;11.090;2023-08-21T01:29:17;95885.59;;;21.40;65.56
79799;BME280;69283;48.024;11.090;2023-08-21T01:31:47;95877.72;;;21.38;65.38
79799;BME280;69283;48.024;11.090;2023-08-21T01:34:15;95885.59;;;21.33;65.48
79799;BME280;69283;48.024;11.090;2023-08-21T01:36:42;95883.16;;;21.06;66.83
79799;BME280;69283;48.024;11.090;2023-08-21T01:39:08;95881.59;;;21.05;66.30
79799;BME280;69283;48.024;11.090;2023-08-21T01:41:33;95883.13;;;20.99;66.61
79799;BME280;69283;48.024;11.090;2023-08-21T01:43:59;95882.72;;;20.90;66.84
79799;BME280;69283;48.024;11.090;2023-08-21T01:46:24;95891.78;;;20.83;67.10
79799;BME280;69283;48.024;11.090;2023-08-21T01:48:49;95889.03;;;20.87;66.66
79799;BME280;69283;48.024;11.090;2023-08-21T01:51:15;95882.34;;;20.95;66.17
79799;BME280;69283;48.024;11.090;2023-08-21T01:53:40;95891.72;;;20.80;66.88
79799;BME280;69283;48.024;11.090;2023-08-21T01:56:06;95888.59;;;20.78;66.94
79799;BME280;69283;48.024;11.090;2023-08-21T01:58:31;95896.50;;;20.83;66.50
79799;BME280;69283;48.024;11.090;2023-08-21T02:00:56;95896.06;;;20.74;66.79
79799;BME280;69283;48.024;11.090;2023-08-21T02:03:24;95891.38;;;20.88;66.39
79799;BME280;69283;48.024;11.090;2023-08-21T02:05:50;95887.06;;;20.94;65.94
79799;BME280;69283;48.024;11.090;2023-08-21T02:08:16;95900.44;;;20.96;65.96
79799;BME280;69283;48.024;11.090;2023-08-21T02:10:49;95894.94;;;20.92;65.67
79799;BME280;69283;48.024;11.090;2023-08-21T02:13:15;95888.25;;;20.93;65.68
79799;BME280;69283;48.024;11.090;2023-08-21T02:15:40;95890.59;;;20.95;65.62
79799;BME280;69283;48.024;11.090;2023-08-21T02:18:05;95885.09;;;20.84;65.99
79799;BME280;69283;48.024;11.090;2023-08-21T02:20:31;95885.44;;;20.72;66.15
79799;BME280;69283;48.024;11.090;2023-08-21T02:22:56;95892.84;;;20.61;66.70
79799;BME280;69283;48.024;11.090;2023-08-21T02:25:21;95894.41;;;20.51;66.81
79799;BME280;69283;48.024;11.090;2023-08-21T02:27:46;95896.03;;;20.70;66.10
79799;BME280;69283;48.024;11.090;2023-08-21T02:30:12;95888.13;;;20.58;66.55
79799;BME280;69283;48.024;11.090;2023-08-21T02:32:37;95890.13;;;20.64;66.17
79799;BME280;69283;48.024;11.090;2023-08-21T02:35:05;95898.78;;;20.67;65.79
79799;BME280;69283;48.024;11.090;2023-08-21T02:37:31;95888.97;;;20.69;65.76
79799;BME280;69283;48.024;11.090;2023-08-21T02:39:56;95899.19;;;20.65;65.75
79799;BME280;69283;48.024;11.090;2023-08-21T02:42:21;95896.44;;;20.76;65.40
79799;BME280;69283;48.024;11.090;2023-08-21T02:44:46;95895.25;;;20.73;65.41
79799;BME280;69283;48.024;11.090;2023-08-21T02:47:12;95888.56;;;20.63;65.55
79799;BME280;69283;48.024;11.090;2023-08-21T02:49:37;95899.53;;;20.56;65.72
79799;BME280;69283;48.024;11.090;2023-08-21T02:52:03;95890.09;;;20.57;65.67
79799;BME280;69283;48.024;11.090;2023-08-21T02:54:28;95893.63;;;20.54;65.82
79799;BME280;69283;48.024;11.090;2023-08-21T02:56:53;95894.78;;;20.50;65.83
79799;BME280;69283;48.024;11.090;2023-08-21T02:59:18;95897.16;;;20.51;65.70
79799;BME280;69283;48.024;11.090;2023-08-21T03:01:44;95891.63;;;20.48;66.15
79799;BME280;69283;48.024;11.090;2023-08-21T03:04:09;95909.56;;;20.24;66.78
79799;BME280;69283;48.024;11.090;2023-08-21T03:06:34;95906.38;;;20.18;66.85
79799;BME280;69283;48.024;11.090;2023-08-21T03:09:00;95904.50;;;20.33;66.42
79799;BME280;69283;48.024;11.090;2023-08-21T03:11:25;95903.28;;;20.27;66.83
79799;BME280;69283;48.024;11.090;2023-08-21T03:13:50;95903.72;;;20.32;66.38
79799;BME280;69283;48.024;11.090;2023-08-21T03:16:15;95893.88;;;20.28;66.22
79799;BME280;69283;48.024;11.090;2023-08-21T03:18:57;95900.47;;;20.13;66.71
79799;BME280;69283;48.024;11.090;2023-08-21T03:21:23;95907.88;;;20.05;67.08
79799;BME280;69283;48.024;11.090;2023-08-21T03:23:55;95911.03;;;20.03;67.12
79799;BME280;69283;48.024;11.090;2023-08-21T03:26:20;95908.59;;;19.95;67.39
79799;BME280;69283;48.024;11.090;2023-08-21T03:28:45;95904.78;;;20.10;66.53
79799;BME280;69283;48.024;11.090;2023-08-21T03:31:11;95904.00;;;20.13;66.67
79799;BME280;69283;48.024;11.090;2023-08-21T03:33:36;95906.34;;;20.08;66.78
79799;BME280;69283;48.024;11.090;2023-08-21T03:36:01;95910.69;;;20.16;66.41
79799;BME280;69283;48.024;11.090;2023-08-21T03:38:27;95907.81;;;19.94;67.05
79799;BME280;69283;48.024;11.090;2023-08-21T03:40:52;95907.81;;;19.94;67.00
79799;BME280;69283;48.024;11.090;2023-08-21T03:43:17;95909.28;;;19.81;67.27
79799;BME280;69283;48.024;11.090;2023-08-21T03:45:43;95898.41;;;19.99;66.80
79799;BME280;69283;48.024;11.090;2023-08-21T03:48:08;95903.19;;;20.05;66.52
79799;BME280;69283;48.024;11.090;2023-08-21T03:50:33;95907.91;;;20.09;66.55
79799;BME280;69283;48.024;11.090;2023-08-21T03:52:58;95912.56;;;20.01;66.86
79799;BME280;69283;48.024;11.090;2023-08-21T03:55:24;95912.53;;;19.94;66.64
79799;BME280;69283;48.024;11.090;2023-08-21T03:57:49;95916.69;;;19.73;67.33
79799;BME280;69283;48.024;11.090;2023-08-21T04:00:14;95922.69;;;19.86;66.69
79799;BME280;69283;48.024;11.090;2023-08-21T04:02:40;95916.44;;;19.89;66.79
79799;BME280;69283;48.024;11.090;2023-08-21T04:05:06;95911.69;;;19.86;66.88
79799;BME280;69283;48.024;11.090;2023-08-21T04:07:31;95912.38;;;19.72;67.65
79799;BME280;69283;48.024;11.090;2023-08-21T04:09:56;95927.25;;;19.68;67.73
79799;BME280;69283;48.024;11.090;2023-08-21T04:12:21;95921.63;;;19.54;68.15
79799;BME280;69283;48.024;11.090;2023-08-21T04:14:47;95920.09;;;19.60;67.97
79799;BME280;69283;48.024;11.090;2023-08-21T04:17:12;95920.41;;;19.51;68.27
79799;BME280;69283;48.024;11.090;2023-08-21T04:19:37;95916.94;;;19.54;68.07
79799;BME280;69283;48.024;11.090;2023-08-21T04:22:06;95920.91;;;19.60;67.84
79799;BME280;69283;48.024;11.090;2023-08-21T04:24:31;95926.31;;;19.53;67.92
79799;BME280;69283;48.024;11.090;2023-08-21T04:26:56;95924.03;;;19.59;67.75
79799;BME280;69283;48.024;11.090;2023-08-21T04:29:22;95931.56;;;19.65;67.70
79799;BME280;69283;48.024;11.090;2023-08-21T04:31:47;95931.59;;;19.69;67.67
79799;BME280;69283;48.024;11.090;2023-08-21T04:34:13;95933.75;;;19.49;68.28
79799;BME280;69283;48.024;11.090;2023-08-21T04:36:38;95935.91;;;19.70;67.61
79799;BME280;69283;48.024;11.090;2023-08-21T04:39:03;95943.63;;;19.54;68.17
79799;BME280;69283;48.024;11.090;2023-08-21T04:41:29;95939.16;;;19.83;67.36
79799;BME280;69283;48.024;11.090;2023-08-21T04:43:54;95940.28;;;19.78;67.32
79799;BME280;69283;48.024;11.090;2023-08-21T04:46:19;95944.22;;;19.77;67.59
79799;BME280;69283;48.024;11.090;2023-08-21T04:48:45;95950.09;;;19.75;67.70
79799;BME280;69283;48.024;11.090;2023-08-21T04:51:10;95947.06;;;19.91;67.32
79799;BME280;69283;48.024;11.090;2023-08-21T04:53:35;95947.97;;;20.02;66.55
79799;BME280;69283;48.024;11.090;2023-08-21T04:56:01;95953.47;;;20.06;66.94
79799;BME280;69283;48.024;11.090;2023-08-21T04:58:26;95955.84;;;20.08;66.84
79799;BME280;69283;48.024;11.090;2023-08-21T05:00:51;95962.56;;;20.14;66.87
79799;BME280;69283;48.024;11.090;2023-08-21T05:03:17;95948.91;;;20.31;66.20
79799;BME280;69283;48.024;11.090;2023-08-21T05:05:42;95956.38;;;20.27;66.63
79799;BME280;69283;48.024;11.090;2023-08-21T05:08:16;95959.94;;;20.35;66.40
79799;BME280;69283;48.024;11.090;2023-08-21T05:10:41;95959.66;;;20.47;65.99
79799;BME280;69283;48.024;11.090;2023-08-21T05:13:07;95966.78;;;20.59;65.91
79799;BME280;69283;48.024;11.090;2023-08-21T05:15:32;95971.09;;;20.56;66.19
79799;BME280;69283;48.024;11.090;2023-08-21T05:17:57;95968.41;;;20.63;65.91
79799;BME280;69283;48.024;11.090;2023-08-21T05:20:23;95962.53;;;20.76;66.11
79799;BME280;69283;48.024;11.090;2023-08-21T05:22:48;95961.41;;;20.87;65.70
79799;BME280;69283;48.024;11.090;2023-08-21T05:25:13;95963.81;;;20.96;65.41
79799;BME280;69283;48.024;11.090;2023-08-21T05:27:40;95958.72;;;21.05;65.37
79799;BME280;69283;48.024;11.090;2023-08-21T05:30:06;95968.97;;;21.12;65.65
79799;BME280;69283;48.024;11.090;2023-08-21T05:32:31;95966.22;;;21.19;65.68
79799;BME280;69283;48.024;11.090;2023-08-21T05:34:56;95968.66;;;21.35;64.80
79799;BME280;69283;48.024;11.090;2023-08-21T05:37:22;95966.75;;;21.46;65.13
79799;BME280;69283;48.024;11.090;2023-08-21T05:39:47;95965.94;;;21.60;64.17
79799;BME280;69283;48.024;11.090;2023-08-21T05:42:13;95975.44;;;21.69;63.81
79799;BME280;69283;48.024;11.090;2023-08-21T05:44:39;95971.47;;;21.81;63.63
79799;BME280;69283;48.024;11.090;2023-08-21T05:47:04;95973.06;;;21.93;62.45
79799;BME280;69283;48.024;11.090;2023-08-21T05:49:29;95975.88;;;22.07;62.95
79799;BME280;69283;48.024;11.090;2023-08-21T05:51:56;95970.72;;;22.30;61.44
79799;BME280;69283;48.024;11.090;2023-08-21T05:54:24;95976.19;;;22.52;61.58
79799;BME280;69283;48.024;11.090;2023-08-21T05:56:50;95970.63;;;22.69;60.63
79799;BME280;69283;48.024;11.090;2023-08-21T05:59:27;95972.13;;;22.81;60.94
79799;BME280;69283;48.024;11.090;2023-08-21T06:01:55;95975.34;;;22.83;60.17
79799;BME280;69283;48.024;11.090;2023-08-21T06:04:20;95976.06;;;22.94;59.78
79799;BME280;69283;48.024;11.090;2023-08-21T06:06:45;95969.72;;;23.04;59.89
79799;BME280;69283;48.024;11.090;2023-08-21T06:09:11;95971.28;;;23.09;58.63
79799;BME280;69283;48.024;11.090;2023-08-21T06:11:36;95965.31;;;23.18;58.84
79799;BME280;69283;48.024;11.090;2023-08-21T06:14:01;95970.00;;;23.28;57.78
79799;BME280;69283;48.024;11.090;2023-08-21T06:16:27;95970.31;;;23.41;58.33
79799;BME280;69283;48.024;11.090;2023-08-21T06:18:52;95974.97;;;23.54;57.38
79799;BME280;69283;48.024;11.090;2023-08-21T06:21:17;95981.25;;;23.65;57.41
79799;BME280;69283;48.024;11.090;2023-08-21T06:23:42;95972.44;;;23.85;57.62
79799;BME280;69283;48.024;11.090;2023-08-21T06:26:08;95978.22;;;24.01;57.96
79799;BME280;69283;48.024;11.090;2023-08-21T06:28:33;95977.00;;;24.02;57.79
79799;BME280;69283;48.024;11.090;2023-08-21T06:30:58;95980.50;;;24.13;57.52
79799;BME280;69283;48.024;11.090;2023-08-21T06:33:24;95982.56;;;24.02;57.85
79799;BME280;69283;48.024;11.090;2023-08-21T06:35:49;95976.97;;;24.09;58.13
79799;BME280;69283;48.024;11.090;2023-08-21T06:38:14;95981.72;;;24.09;58.65
79799;BME280;69283;48.024;11.090;2023-08-21T06:40:40;95976.53;;;24.14;59.07
79799;BME280;69283;48.024;11.090;2023-08-21T06:43:05;95983.25;;;24.13;58.58
79799;BME280;69283;48.024;11.090;2023-08-21T06:45:31;95982.78;;;24.25;59.12
79799;BME280;69283;48.024;11.090;2023-08-21T06:47:57;95978.75;;;24.34;58.80
79799;BME280;69283;48.024;11.090;2023-08-21T06:50:23;95983.00;;;24.45;58.19
79799;BME280;69283;48.024;11.090;2023-08-21T06:52:48;95983.72;;;24.53;58.59
79799;BME280;69283;48.024;11.090;2023-08-21T06:55:13;95990.81;;;24.54;57.78
79799;BME280;69283;48.024;11.090;2023-08-21T06:57:39;95981.81;;;24.46;58.23
79799;BME280;69283;48.024;11.090;2023-08-21T07:00:05;95983.34;;;24.51;58.29
79799;BME280;69283;48.024;11.090;2023-08-21T07:02:31;95983.41;;;24.44;59.03
79799;BME280;69283;48.024;11.090;2023-08-21T07:04:56;95985.38;;;24.47;59.45
79799;BME280;69283;48.024;11.090;2023-08-21T07:07:21;95986.16;;;24.47;59.81
79799;BME280;69283;48.024;11.090;2023-08-21T07:09:48;95984.16;;;24.48;59.55
79799;BME280;69283;48.024;11.090;2023-08-21T07:12:14;95986.91;;;24.51;58.60
79799;BME280;69283;48.024;11.090;2023-08-21T07:14:39;95990.03;;;24.53;59.00
79799;BME280;69283;48.024;11.090;2023-08-21T07:17:04;95990.00;;;24.57;58.72
79799;BME280;69283;48.024;11.090;2023-08-21T07:19:30;95999.53;;;24.52;58.44
79799;BME280;69283;48.024;11.090;2023-08-21T07:21:55;95994.47;;;24.47;58.54
79799;BME280;69283;48.024;11.090;2023-08-21T07:24:20;95993.31;;;24.45;58.55
79799;BME280;69283;48.024;11.090;2023-08-21T07:26:46;95994.03;;;24.49;57.66
79799;BME280;69283;48.024;11.090;2023-08-21T07:29:11;95990.22;;;24.36;58.12
79799;BME280;69283;48.024;11.090;2023-08-21T07:31:36;95997.31;;;24.37;57.81
79799;BME280;69283;48.024;11.090;2023-08-21T07:34:02;95994.22;;;24.31;57.81
79799;BME280;69283;48.024;11.090;2023-08-21T07:36:27;95993.31;;;24.45;58.41
79799;BME280;69283;48.024;11.090;2023-08-21T07:38:52;95993.13;;;24.59;57.95
79799;BME280;69283;48.024;11.090;2023-08-21T07:41:18;95989.47;;;24.69;57.15
79799;BME280;69283;48.024;11.090;2023-08-21T07:43:44;95992.91;;;24.80;56.45
79799;BME280;69283;48.024;11.090;2023-08-21T07:46:11;95989.66;;;24.89;56.63
79799;BME280;69283;48.024;11.090;2023-08-21T07:48:44;95994.94;;;24.76;56.36
79799;BME280;69283;48.024;11.090;2023-08-21T07:51:09;95994.88;;;24.83;56.67
79799;BME280;69283;48.024;11.090;2023-08-21T07:53:35;95998.31;;;24.95;56.20
79799;BME280;69283;48.024;11.090;2023-08-21T07:56:01;96001.50;;;24.93;56.30
79799;BME280;69283;48.024;11.090;2023-08-21T07:58:27;95999.81;;;25.03;56.27
79799;BME280;69283;48.024;11.090;2023-08-21T08:00:52;96002.16;;;25.08;55.88
79799;BME280;69283;48.024;11.090;2023-08-21T08:03:18;95994.09;;;25.17;55.10
79799;BME280;69283;48.024;11.090;2023-08-21T08:05:43;96003.91;;;25.25;55.99
79799;BME280;69283;48.024;11.090;2023-08-21T08:08:09;95995.50;;;25.32;55.93
79799;BME280;69283;48.024;11.090;2023-08-21T08:10:37;95996.59;;;25.38;55.28
79799;BME280;69283;48.024;11.090;2023-08-21T08:13:04;96002.50;;;25.40;54.90
79799;BME280;69283;48.024;11.090;2023-08-21T08:15:29;96002.50;;;25.40;54.43
79799;BME280;69283;48.024;11.090;2023-08-21T08:17:54;96004.13;;;25.38;54.67
79799;BME280;69283;48.024;11.090;2023-08-21T08:20:20;95998.25;;;25.32;54.58
79799;BME280;69283;48.024;11.090;2023-08-21T08:22:45;95997.06;;;25.33;55.04
79799;BME280;69283;48.024;11.090;2023-08-21T08:25:11;96001.69;;;25.43;54.55
79799;BME280;69283;48.024;11.090;2023-08-21T08:27:36;96002.47;;;25.44;55.17
79799;BME280;69283;48.024;11.090;2023-08-21T08:30:03;95997.31;;;25.46;55.54
79799;BME280;69283;48.024;11.090;2023-08-21T08:32:28;95998.75;;;25.54;55.52
79799;BME280;69283;48.024;11.090;2023-08-21T08:34:54;95995.44;;;25.63;55.46
79799;BME280;69283;48.024;11.090;2023-08-21T08:37:19;95997.38;;;25.69;54.83
79799;BME280;69283;48.024;11.090;2023-08-21T08:39:48;95994.25;;;25.67;55.35
79799;BME280;69283;48.024;11.090;2023-08-21T08:42:16;96001.31;;;25.72;54.60
79799;BME280;69283;48.024;11.090;2023-08-21T08:44:43;96001.13;;;25.83;54.77
79799;BME280;69283;48.024;11.090;2023-08-21T08:47:10;95999.97;;;25.84;55.39
79799;BME280;69283;48.024;11.090;2023-08-21T08:49:36;96003.41;;;25.91;56.16
79799;BME280;69283;48.024;11.090;2023-08-21T08:52:02;96004.00;;;26.02;56.03
79799;BME280;69283;48.024;11.090;2023-08-21T08:54:29;96010.25;;;26.10;56.04
79799;BME280;69283;48.024;11.090;2023-08-21T08:56:54;96003.78;;;26.17;54.68
79799;BME280;69283;48.024;11.090;2023-08-21T08:59:20;96005.34;;;26.18;54.98
79799;BME280;69283;48.024;11.090;2023-08-21T09:01:45;96007.78;;;26.16;55.06
79799;BME280;69283;48.024;11.090;2023-08-21T09:04:11;96014.06;;;26.20;55.16
79799;BME280;69283;48.024;11.090;2023-08-21T09:06:37;96008.47;;;26.23;54.31
79799;BME280;69283;48.024;11.090;2023-08-21T09:09:02;96008.47;;;26.23;54.58
79799;BME280;69283;48.024;11.090;2023-08-21T09:11:28;95995.59;;;26.33;55.37
79799;BME280;69283;48.024;11.090;2023-08-21T09:13:54;96002.25;;;26.39;54.36
79799;BME280;69283;48.024;11.090;2023-08-21T09:16:21;96004.97;;;26.43;53.58
79799;BME280;69283;48.024;11.090;2023-08-21T09:18:54;96006.16;;;26.42;54.61
79799;BME280;69283;48.024;11.090;2023-08-21T09:21:20;96002.56;;;26.45;53.80
79799;BME280;69283;48.024;11.090;2023-08-21T09:23:46;95999.38;;;26.46;54.65
79799;BME280;69283;48.024;11.090;2023-08-21T09:26:19;95997.31;;;26.50;55.05
79799;BME280;69283;48.024;11.090;2023-08-21T09:28:48;95996.19;;;26.67;54.31
79799;BME280;69283;48.024;11.090;2023-08-21T09:31:14;95989.34;;;26.72;53.67
79799;BME280;69283;48.024;11.090;2023-08-21T09:33:40;95999.69;;;26.72;53.64
79799;BME280;69283;48.024;11.090;2023-08-21T09:36:05;95994.66;;;26.86;51.65
79799;BME280;69283;48.024;11.090;2023-08-21T09:38:30;95991.28;;;26.75;50.34
79799;BME280;69283;48.024;11.090;2023-08-21T09:40:56;95994.06;;;26.75;50.92
79799;BME280;69283;48.024;11.090;2023-08-21T09:43:22;95991.72;;;26.74;50.93
79799;BME280;69283;48.024;11.090;2023-08-21T09:45:50;95989.28;;;26.76;49.78
79799;BME280;69283;48.024;11.090;2023-08-21T09:48:22;95986.34;;;26.83;50.49
79799;BME280;69283;48.024;11.090;2023-08-21T09:50:50;95980.31;;;26.88;49.22
79799;BME280;69283;48.024;11.090;2023-08-21T09:53:16;95973.97;;;26.87;49.48
79799;BME280;69283;48.024;11.090;2023-08-21T09:55:42;95973.03;;;26.94;46.98
79799;BME280;69283;48.024;11.090;2023-08-21T09:58:08;95975.56;;;27.08;46.13
79799;BME280;69283;48.024;11.090;2023-08-21T10:00:35;95971.59;;;27.09;48.97
79799;BME280;69283;48.024;11.090;2023-08-21T10:03:01;95973.22;;;27.26;47.20
79799;BME280;69283;48.024;11.090;2023-08-21T10:05:28;95972.44;;;27.26;46.27
79799;BME280;69283;48.024;11.090;2023-08-21T10:07:55;95974.00;;;27.27;42.67
79799;BME280;69283;48.024;11.090;2023-08-21T10:10:21;95970.00;;;27.28;40.18
79799;BME280;69283;48.024;11.090;2023-08-21T10:12:48;95967.47;;;27.34;39.47
79799;BME280;69283;48.024;11.090;2023-08-21T10:15:13;95971.31;;;27.40;41.38
79799;BME280;69283;48.024;11.090;2023-08-21T10:17:39;95965.31;;;27.41;40.61
79799;BME280;69283;48.024;11.090;2023-08-21T10:20:05;95968.84;;;27.45;41.45
79799;BME280;69283;48.024;11.090;2023-08-21T10:22:49;95967.88;;;27.52;41.48
79799;BME280;69283;48.024;11.090;2023-08-21T10:25:24;95962.56;;;27.57;41.66
79799;BME280;69283;48.024;11.090;2023-08-21T10:27:57;95966.03;;;27.65;40.12
79799;BME280;69283;48.024;11.090;2023-08-21T10:30:24;95955.59;;;27.69;38.25
79799;BME280;69283;48.024;11.090;2023-08-21T10:32:51;95956.97;;;27.77;38.78
79799;BME280;69283;48.024;11.090;2023-08-21T10:35:27;95959.69;;;27.81;40.40
79799;BME280;69283;48.024;11.090;2023-08-21T10:38:06;95952.97;;;27.78;38.92
79799;BME280;69283;48.024;11.090;2023-08-21T10:40:32;95956.75;;;27.88;39.18
79799;BME280;69283;48.024;11.090;2023-08-21T10:42:58;95951.00;;;27.95;38.37
79799;BME280;69283;48.024;11.090;2023-08-21T10:45:24;95953.88;;;27.92;39.37
79799;BME280;69283;48.024;11.090;2023-08-21T10:47:49;95954.22;;;27.94;40.29
79799;BME280;69283;48.024;11.090;2023-08-21T10:50:16;95949.53;;;27.91;41.64
79799;BME280;69283;48.024;11.090;2023-08-21T10:52:43;95954.66;;;27.92;41.96
79799;BME280;69283;48.024;11.090;2023-08-21T10:55:12;95954.75;;;28.05;40.31
79799;BME280;69283;48.024;11.090;2023-08-21T10:57:38;95957.09;;;28.06;40.37
79799;BME280;69283;48.024;11.090;2023-08-21T11:00:08;95953.53;;;28.06;39.10
79799;BME280;69283;48.024;11.090;2023-08-21T11:02:41;95952.47;;;28.16;39.97
79799;BME280;69283;48.024;11.090;2023-08-21T11:05:07;95950.81;;;28.18;40.35
79799;BME280;69283;48.024;11.090;2023-08-21T11:07:44;95958.56;;;28.11;40.44
79799;BME280;69283;48.024;11.090;2023-08-21T11:10:12;95950.03;;;28.18;40.86
79799;BME280;69283;48.024;11.090;2023-08-21T11:12:52;95955.63;;;28.34;40.25
79799;BME280;69283;48.024;11.090;2023-08-21T11:15:18;95956.81;;;28.17;41.76
79799;BME280;69283;48.024;11.090;2023-08-21T11:18:02;95957.16;;;28.19;41.08
79799;BME280;69283;48.024;11.090;2023-08-21T11:20:34;95950.47;;;28.33;41.06
79799;BME280;69283;48.024;11.090;2023-08-21T11:23:05;95956.31;;;28.38;40.88
79799;BME280;69283;48.024;11.090;2023-08-21T11:25:32;95950.81;;;28.35;40.42
79799;BME280;69283;48.024;11.090;2023-08-21T11:27:58;95960.22;;;28.41;40.87
79799;BME280;69283;48.024;11.090;2023-08-21T11:30:23;95957.34;;;28.44;41.41
79799;BME280;69283;48.024;11.090;2023-08-21T11:32:49;95952.38;;;28.36;40.92
79799;BME280;69283;48.024;11.090;2023-08-21T11:35:29;95951.78;;;28.44;40.82
79799;BME280;69283;48.024;11.090;2023-08-21T11:37:54;95951.50;;;28.39;40.61
79799;BME280;69283;48.024;11.090;2023-08-21T11:40:19;95948.47;;;28.33;40.76
79799;BME280;69283;48.024;11.090;2023-08-21T11:42:45;95944.47;;;28.34;41.13
79799;BME280;69283;48.024;11.090;2023-08-21T11:45:10;95955.63;;;28.34;41.41
79799;BME280;69283;48.024;11.090;2023-08-21T11:47:36;95947.31;;;28.47;41.09
79799;BME280;69283;48.024;11.090;2023-08-21T11:50:03;95944.97;;;28.45;41.03
79799;BME280;69283;48.024;11.090;2023-08-21T11:52:29;95939.41;;;28.45;41.38
79799;BME280;69283;48.024;11.090;2023-08-21T11:54:57;95944.97;;;28.45;41.43
79799;BME280;69283;48.024;11.090;2023-08-21T11:57:22;95941.28;;;28.65;41.34
79799;BME280;69283;48.024;11.090;2023-08-21T11:59:52;95940.50;;;28.64;41.06
79799;BME280;69283;48.024;11.090;2023-08-21T12:02:28;95940.75;;;28.83;39.77
79799;BME280;69283;48.024;11.090;2023-08-21T12:05:01;95930.69;;;28.89;41.01
79799;BME280;69283;48.024;11.090;2023-08-21T12:07:27;95935.50;;;28.72;41.45
79799;BME280;69283;48.024;11.090;2023-08-21T12:09:54;95930.16;;;28.77;41.82
79799;BME280;69283;48.024;11.090;2023-08-21T12:12:19;95926.41;;;28.84;41.28
79799;BME280;69283;48.024;11.090;2023-08-21T12:14:45;95938.41;;;28.81;41.41
79799;BME280;69283;48.024;11.090;2023-08-21T12:17:10;95929.59;;;28.83;40.37
79799;BME280;69283;48.024;11.090;2023-08-21T12:19:36;95923.56;;;29.00;39.54
79799;BME280;69283;48.024;11.090;2023-08-21T12:22:01;95920.09;;;28.96;40.50
79799;BME280;69283;48.024;11.090;2023-08-21T12:24:27;95923.53;;;28.88;40.69
79799;BME280;69283;48.024;11.090;2023-08-21T12:26:52;95924.75;;;28.87;40.37
79799;BME280;69283;48.024;11.090;2023-08-21T12:29:17;95922.38;;;28.85;41.12
79799;BME280;69283;48.024;11.090;2023-08-21T12:31:43;95917.53;;;28.89;40.52
79799;BME280;69283;48.024;11.090;2023-08-21T12:34:08;95910.38;;;29.01;39.52
79799;BME280;69283;48.024;11.090;2023-08-21T12:36:35;95915.41;;;28.93;39.46
79799;BME280;69283;48.024;11.090;2023-08-21T12:39:02;95914.31;;;29.03;38.50
79799;BME280;69283;48.024;11.090;2023-08-21T12:41:28;95905.41;;;29.21;37.98
79799;BME280;69283;48.024;11.090;2023-08-21T12:43:54;95904.41;;;29.15;37.90
79799;BME280;69283;48.024;11.090;2023-08-21T12:46:19;95902.16;;;29.23;36.67